Wednesday, October 18, 2017, 5:12 PM CDT
Back to Local

KFNB, Falls City Brenner Fld Airport

Location: Falls City, NE, United States Lat: 40.083
Local Time: 5:12 PM CDT (22:12 GMT) Lon: -95.583
Time Zone: US/Central Elev: 984 ft

Show me the last for .
Show Decoded

2017-10-18 16:53 METAR KFNB 182153Z AUTO 19006KT 10SM CLR 23/09 A2995 RMK AO2 SLP138 T02330094 $
                 =
2017-10-18 15:53 METAR KFNB 182053Z AUTO 19008KT 10SM CLR 23/09 A2994 RMK AO2 SLP135 T02280094
                 56006 $ =
2017-10-18 14:53 METAR KFNB 181953Z AUTO 20009KT 10SM CLR 22/09 A2995 RMK AO2 SLP138 T02220094 $
                 =
2017-10-18 13:53 METAR KFNB 181853Z AUTO 18010G19KT 10SM CLR 21/09 A2995 RMK AO2 SLP137 T02110089
                 $ =
2017-10-18 12:53 METAR KFNB 181753Z AUTO 20010G18KT 10SM CLR 20/09 A2996 RMK AO2 SLP142 T02000089
                 10200 20078 58008 $ =
2017-10-18 11:53 METAR KFNB 181653Z AUTO 20010KT 10SM CLR 19/08 A2998 RMK AO2 SLP148 T01890078 $
                 =
2017-10-18 10:53 METAR KFNB 181553Z AUTO 20013G20KT 10SM CLR 17/08 A2998 RMK AO2 SLP148 T01720078
                 $ =
2017-10-18 09:53 METAR KFNB 181453Z AUTO 19010G19KT 10SM CLR 15/08 A2999 RMK AO2 SLP151 T01500078
                 51001 =
2017-10-18 08:53 METAR KFNB 181353Z AUTO 18008KT 10SM CLR 12/07 A2999 RMK AO2 SLP152 T01220072 =
2017-10-18 07:53 METAR KFNB 181253Z AUTO 00000KT 10SM CLR 08/06 A2999 RMK AO2 SLP154 T00830061 =
2017-10-18 06:53 METAR KFNB 181153Z AUTO 17006KT 10SM CLR 10/07 A2998 RMK AO2 SLP151 T01000067
                 10128 20100 56003 =
2017-10-18 05:53 METAR KFNB 181053Z AUTO 18007KT 10SM CLR 11/07 A2998 RMK AO2 SLP150 T01060072 =
2017-10-18 04:53 METAR KFNB 180953Z AUTO 16007KT 10SM CLR 11/07 A2999 RMK AO2 SLP150 T01060072 =
2017-10-18 03:53 METAR KFNB 180853Z AUTO 19008KT 10SM CLR 12/08 A2999 RMK AO2 SLP152 T01170078
                 58010 =
2017-10-18 02:53 METAR KFNB 180753Z AUTO 19010KT 10SM CLR 12/08 A3001 RMK AO2 SLP158 T01170078 =
2017-10-18 01:53 METAR KFNB 180653Z AUTO 19009KT 10SM CLR 12/08 A3001 RMK AO2 SLP159 T01220078 =
2017-10-18 00:53 METAR KFNB 180553Z AUTO 18007KT 10SM CLR 13/08 A3002 RMK AO2 SLP163 T01280078
                 10189 20128 402330078 58004 =
2017-10-17 23:53 METAR KFNB 180453Z AUTO 18008KT 10SM CLR 14/08 A3003 RMK AO2 SLP167 T01390083 =
2017-10-17 22:53 METAR KFNB 180353Z AUTO 17008KT 10SM CLR 14/08 A3003 RMK AO2 SLP168 T01390083 =
2017-10-17 21:53 METAR KFNB 180253Z AUTO 17008KT 10SM CLR 14/08 A3004 RMK AO2 SLP169 T01440083
                 53006 =
2017-10-17 20:53 METAR KFNB 180153Z AUTO 17007KT 10SM CLR 16/08 A3003 RMK AO2 SLP167 T01560083 =
2017-10-17 19:53 METAR KFNB 180053Z AUTO 16007KT 10SM CLR 16/08 A3003 RMK AO2 SLP167 T01610078 =
2017-10-17 18:53 METAR KFNB 172353Z AUTO 16006KT 10SM CLR 19/08 A3002 RMK AO2 SLP163 T01890078
                 10233 20183 55006 =
2017-10-17 17:53 METAR KFNB 172253Z AUTO 18006KT 10SM CLR 22/08 A3001 RMK AO2 SLP160 T02220078 =

Support USWX by starting your Amazon purchase here.